Powersville, Missouri
Current Conditions -  °F | °C
As of 8:50 PM on Wednesday 26 Nov 2014 (Local Time) from KTVK Reporting Station
Light Snow Light Snow  
Wind Chill: 18°   Ceiling: 800
Heat Index: 28°   Visibility: 10mi
Dew Point: 28°   Wind: 12mph
Humidity: 100%   Direction: 10°N
Pressure: 30.25"   Gusts: NA
Location:  40.55°N, 93.3°W
Report Text: KTVK 270250Z AUTO 01010KT 10SM -SN FEW001 OVC008 M02/M02 A3025 RMK AO2
Loading
Personal Weather Stations






























Interactive Weather Map New forecast layout! Learn more

10-Day Weather Forecast

Advertisements
Track Severe Weather on mobile